createdAt,value
2023-01-30T00:01:21.471Z,100.00
2023-01-30T00:03:49.647Z,99.94
2023-01-30T00:06:17.591Z,100.00
2023-01-30T00:08:46.083Z,99.91
2023-01-30T00:11:15.832Z,100.00
2023-01-30T00:13:44.022Z,99.65
2023-01-30T00:16:12.154Z,99.68
2023-01-30T00:18:41.678Z,98.99
2023-01-30T00:21:11.292Z,99.11
2023-01-30T00:23:40.028Z,99.23
2023-01-30T00:26:09.688Z,99.35
2023-01-30T00:28:39.835Z,99.85
2023-01-30T00:31:08.388Z,99.61
2023-01-30T00:33:38.663Z,99.44
2023-01-30T00:36:07.052Z,99.33
2023-01-30T00:38:35.049Z,98.96
2023-01-30T00:41:03.326Z,98.55
2023-01-30T00:43:49.836Z,98.44
2023-01-30T00:46:50.911Z,98.66
2023-01-30T00:49:19.663Z,98.31
2023-01-30T00:51:47.706Z,98.33
2023-01-30T00:54:15.591Z,98.35
2023-01-30T00:56:43.300Z,98.37
2023-01-30T00:59:11.253Z,98.41
2023-01-30T01:01:39.033Z,99.07
2023-01-30T01:04:10.344Z,99.27
2023-01-30T01:06:38.702Z,99.66
2023-01-30T01:09:07.373Z,99.68
2023-01-30T01:11:35.064Z,99.99
2023-01-30T01:14:05.101Z,99.92
2023-01-30T01:16:33.785Z,99.47
2023-01-30T01:19:02.447Z,99.76
2023-01-30T01:21:30.459Z,99.84
2023-01-30T01:24:00.848Z,99.65
2023-01-30T01:26:28.763Z,99.81
2023-01-30T01:28:58.332Z,100.00
2023-01-30T01:31:26.766Z,99.73
2023-01-30T01:33:57.389Z,99.58
2023-01-30T01:36:52.287Z,99.38
2023-01-30T01:39:14.702Z,99.15
2023-01-30T01:41:42.893Z,99.12
2023-01-30T01:44:17.211Z,98.96
2023-01-30T01:46:58.257Z,98.71
2023-01-30T01:49:33.736Z,98.28
2023-01-30T01:52:15.397Z,98.43
2023-01-30T01:54:49.032Z,98.16
2023-01-30T01:57:25.231Z,97.97
2023-01-30T02:00:16.880Z,97.83
2023-01-30T02:02:58.077Z,97.42
2023-01-30T02:05:31.360Z,97.48
2023-01-30T02:08:04.996Z,97.20
2023-01-30T02:10:56.999Z,96.86
2023-01-30T02:13:25.203Z,97.05
2023-01-30T02:15:58.157Z,97.13
2023-01-30T02:18:26.276Z,97.32
2023-01-30T02:21:31.700Z,97.07
2023-01-30T02:24:20.639Z,96.74
2023-01-30T02:27:07.782Z,96.63
2023-01-30T02:29:38.382Z,96.43
2023-01-30T02:32:09.309Z,96.84
2023-01-30T02:34:56.007Z,96.49
2023-01-30T02:37:43.972Z,96.54
2023-01-30T02:40:36.666Z,96.68
2023-01-30T02:43:24.958Z,96.52
2023-01-30T02:46:08.918Z,95.94
2023-01-30T02:48:42.413Z,95.85
2023-01-30T02:51:30.470Z,95.37
2023-01-30T02:54:00.186Z,94.75
2023-01-30T02:56:28.024Z,94.53
2023-01-30T02:59:02.398Z,93.78
2023-01-30T03:01:44.482Z,92.92
2023-01-30T03:04:42.188Z,92.66
2023-01-30T03:07:34.886Z,92.42
2023-01-30T03:10:08.819Z,92.07
2023-01-30T03:12:53.915Z,91.79
2023-01-30T03:15:34.314Z,91.85
2023-01-30T03:18:03.473Z,91.38
2023-01-30T03:20:36.610Z,91.38
2023-01-30T03:23:04.257Z,91.50
2023-01-30T03:25:33.695Z,91.17
2023-01-30T03:28:04.946Z,91.20
2023-01-30T03:30:33.204Z,91.35
2023-01-30T03:33:07.733Z,91.02
2023-01-30T03:35:37.607Z,91.29
2023-01-30T03:38:06.169Z,91.30
2023-01-30T03:40:34.327Z,92.36
2023-01-30T03:43:02.074Z,92.52
2023-01-30T03:45:30.250Z,93.12
2023-01-30T03:47:57.990Z,93.71
2023-01-30T03:50:25.913Z,94.37
2023-01-30T03:52:54.087Z,94.98
2023-01-30T03:55:23.249Z,95.47
2023-01-30T03:57:58.856Z,96.07
2023-01-30T04:00:30.473Z,96.33
2023-01-30T04:02:59.039Z,96.71
2023-01-30T04:05:27.576Z,97.59
2023-01-30T04:08:02.333Z,97.98
2023-01-30T04:10:30.266Z,97.50
2023-01-30T04:12:58.299Z,97.41
2023-01-30T04:15:26.287Z,97.33
2023-01-30T04:18:14.269Z,97.13
2023-01-30T04:20:56.740Z,96.98
2023-01-30T04:23:31.648Z,96.87
2023-01-30T04:25:59.638Z,96.50
2023-01-30T04:28:28.340Z,96.01
2023-01-30T04:30:56.454Z,95.53
2023-01-30T04:33:43.264Z,95.58
2023-01-30T04:36:13.118Z,95.22
2023-01-30T04:38:41.955Z,95.14
2023-01-30T04:41:09.999Z,95.21
2023-01-30T04:43:41.269Z,95.24
2023-01-30T04:46:12.073Z,95.72
2023-01-30T04:48:40.858Z,96.12
2023-01-30T04:51:08.879Z,96.62
2023-01-30T04:53:38.688Z,96.38
2023-01-30T04:56:07.310Z,96.43
2023-01-30T04:58:35.643Z,96.09
2023-01-30T05:01:21.513Z,96.10
2023-01-30T05:03:53.426Z,95.88
2023-01-30T05:06:22.915Z,95.44
2023-01-30T05:08:52.442Z,95.11
2023-01-30T05:11:21.666Z,94.53
2023-01-30T05:13:49.574Z,94.06
2023-01-30T05:16:18.900Z,93.79
2023-01-30T05:18:47.046Z,92.89
2023-01-30T05:21:18.286Z,92.67
2023-01-30T05:23:46.334Z,92.33
2023-01-30T05:26:15.448Z,92.21
2023-01-30T05:28:43.365Z,92.19
2023-01-30T05:31:13.876Z,91.73
2023-01-30T05:33:42.090Z,91.78
2023-01-30T05:36:15.457Z,91.43
2023-01-30T05:38:44.420Z,91.00
2023-01-30T05:41:14.396Z,90.84
2023-01-30T05:43:42.301Z,90.54
2023-01-30T05:46:12.769Z,90.15
2023-01-30T05:48:40.900Z,90.08
2023-01-30T05:51:17.967Z,90.16
2023-01-30T05:53:45.635Z,90.13
2023-01-30T05:56:13.673Z,90.10
2023-01-30T05:58:41.659Z,89.93
2023-01-30T06:01:12.860Z,89.54
2023-01-30T06:03:40.828Z,89.06
2023-01-30T06:06:11.489Z,89.09
2023-01-30T06:08:39.782Z,88.67
2023-01-30T06:11:10.579Z,88.67
2023-01-30T06:13:38.757Z,88.52
2023-01-30T06:16:08.613Z,88.25
2023-01-30T06:18:36.678Z,88.05
2023-01-30T06:21:05.181Z,88.29
2023-01-30T06:23:33.012Z,88.17
2023-01-30T06:26:03.508Z,88.09
2023-01-30T06:28:32.979Z,87.89
2023-01-30T06:31:01.008Z,87.85
2023-01-30T06:33:29.077Z,87.90
2023-01-30T06:35:57.167Z,87.95
2023-01-30T06:38:26.152Z,87.66
2023-01-30T06:40:54.242Z,87.66
2023-01-30T06:43:21.884Z,87.57
2023-01-30T06:45:49.880Z,87.19
2023-01-30T06:48:17.599Z,86.72
2023-01-30T06:50:48.028Z,86.40
2023-01-30T06:53:15.783Z,86.09
2023-01-30T06:55:43.655Z,86.09
2023-01-30T06:58:13.634Z,85.82
2023-01-30T07:00:43.448Z,85.70
2023-01-30T07:03:13.604Z,85.13
2023-01-30T07:05:43.101Z,84.83
2023-01-30T07:08:11.429Z,85.03
2023-01-30T07:10:40.717Z,84.71
2023-01-30T07:13:08.670Z,84.27
2023-01-30T07:15:36.973Z,84.23
2023-01-30T07:18:04.943Z,83.79
2023-01-30T07:20:33.358Z,84.09
2023-01-30T07:23:01.295Z,84.31
2023-01-30T07:25:29.799Z,84.18
2023-01-30T07:28:02.398Z,83.60
2023-01-30T07:30:33.216Z,83.61
2023-01-30T07:33:02.460Z,83.50
2023-01-30T07:35:33.546Z,83.07
2023-01-30T07:38:01.324Z,83.36
2023-01-30T07:40:29.434Z,83.32
2023-01-30T07:43:02.514Z,83.79
2023-01-30T07:45:50.773Z,83.94
2023-01-30T07:48:20.035Z,84.03
2023-01-30T07:50:48.273Z,84.23
2023-01-30T07:53:21.045Z,84.84
2023-01-30T07:55:49.021Z,84.66
2023-01-30T07:58:17.279Z,85.23
2023-01-30T08:00:45.547Z,85.49
2023-01-30T08:03:17.410Z,85.63
2023-01-30T08:05:48.664Z,86.31
2023-01-30T08:08:16.972Z,86.79
2023-01-30T08:10:45.126Z,87.16
2023-01-30T08:13:14.823Z,87.62
2023-01-30T08:15:42.803Z,88.32
2023-01-30T08:18:10.673Z,88.80
2023-01-30T08:20:38.717Z,89.17
2023-01-30T08:23:06.466Z,89.83
2023-01-30T08:25:35.537Z,90.35
2023-01-30T08:28:03.835Z,91.00
2023-01-30T08:30:31.870Z,91.56
2023-01-30T08:32:59.686Z,92.07
2023-01-30T08:35:27.757Z,92.13
2023-01-30T08:37:55.823Z,92.67
2023-01-30T08:40:23.791Z,93.09
2023-01-30T08:42:51.428Z,93.50
2023-01-30T08:45:19.463Z,93.40
2023-01-30T08:47:47.455Z,93.91
2023-01-30T08:50:15.636Z,93.99
2023-01-30T08:52:43.456Z,94.09
2023-01-30T08:55:11.834Z,94.17
2023-01-30T08:57:39.687Z,94.60
2023-01-30T09:00:09.074Z,95.11
2023-01-30T09:02:37.010Z,95.82
2023-01-30T09:05:06.531Z,95.79
2023-01-30T09:07:34.465Z,95.50
2023-01-30T09:10:02.505Z,95.88
2023-01-30T09:12:30.124Z,96.00
2023-01-30T09:14:58.543Z,96.31
2023-01-30T09:17:26.295Z,96.42
2023-01-30T09:19:54.795Z,96.58
2023-01-30T09:22:22.508Z,96.65
2023-01-30T09:24:50.421Z,96.47
2023-01-30T09:27:18.074Z,96.59
2023-01-30T09:29:46.091Z,96.42
2023-01-30T09:32:13.950Z,96.46
2023-01-30T09:34:41.875Z,96.69
2023-01-30T09:37:10.679Z,96.54
2023-01-30T09:39:38.623Z,96.77
2023-01-30T09:42:29.630Z,97.09
2023-01-30T09:45:28.109Z,97.04
2023-01-30T09:48:13.599Z,97.25
2023-01-30T09:50:56.094Z,97.39
2023-01-30T09:53:39.114Z,97.00
2023-01-30T09:56:07.365Z,96.75
2023-01-30T09:58:57.617Z,96.87
2023-01-30T10:01:51.616Z,96.67
2023-01-30T10:04:29.727Z,96.76
2023-01-30T10:07:16.881Z,96.73
2023-01-30T10:10:22.997Z,96.89
2023-01-30T10:13:12.405Z,97.14
2023-01-30T10:15:42.956Z,97.13
2023-01-30T10:18:34.948Z,97.42
2023-01-30T10:21:08.398Z,97.90
2023-01-30T10:24:00.872Z,98.11
2023-01-30T10:26:31.317Z,98.34
2023-01-30T10:29:12.516Z,98.54
2023-01-30T10:32:15.577Z,98.84
2023-01-30T10:34:49.038Z,99.11
2023-01-30T10:37:22.818Z,99.24
2023-01-30T10:39:55.598Z,99.55
2023-01-30T10:42:41.964Z,99.66
2023-01-30T10:45:26.668Z,99.65
2023-01-30T10:47:57.071Z,99.99
2023-01-30T10:50:58.456Z,100.00
2023-01-30T10:53:32.210Z,100.00
2023-01-30T10:56:19.385Z,100.00
2023-01-30T10:59:12.929Z,100.00
2023-01-30T11:01:45.065Z,100.00
2023-01-30T11:04:47.776Z,100.00
2023-01-30T11:07:16.349Z,100.00
2023-01-30T11:09:48.554Z,100.00
2023-01-30T11:12:17.050Z,100.00
2023-01-30T11:14:53.501Z,100.00
2023-01-30T11:17:29.911Z,100.00
2023-01-30T11:20:02.652Z,100.00
2023-01-30T11:22:34.349Z,100.00
2023-01-30T11:25:11.653Z,100.00
2023-01-30T11:27:43.496Z,100.00
2023-01-30T11:30:20.337Z,100.00
2023-01-30T11:32:50.354Z,100.00
2023-01-30T11:35:25.812Z,100.00
2023-01-30T11:37:53.916Z,100.00
2023-01-30T11:40:28.259Z,100.00
2023-01-30T11:43:11.846Z,100.00
2023-01-30T11:45:45.797Z,100.00
2023-01-30T11:48:32.981Z,100.00
2023-01-30T11:51:09.496Z,100.00
2023-01-30T11:53:42.662Z,100.00
2023-01-30T11:56:20.808Z,100.00
2023-01-30T11:58:58.221Z,100.00
2023-01-30T12:01:38.365Z,100.00
2023-01-30T12:04:11.093Z,100.00
2023-01-30T12:06:42.363Z,100.00
2023-01-30T12:09:34.627Z,100.00
2023-01-30T12:12:02.674Z,100.00
2023-01-30T12:14:52.607Z,100.00
2023-01-30T12:17:49.383Z,100.00
2023-01-30T12:20:46.701Z,100.00
2023-01-30T12:23:23.886Z,100.00
2023-01-30T12:25:57.128Z,100.00
2023-01-30T12:28:53.981Z,100.00
2023-01-30T12:31:36.785Z,100.00
2023-01-30T12:34:04.911Z,100.00
2023-01-30T12:36:45.404Z,100.00
2023-01-30T12:39:32.007Z,100.00
2023-01-30T12:42:26.822Z,100.00
2023-01-30T12:45:21.827Z,100.00
2023-01-30T12:48:07.807Z,100.00
2023-01-30T12:50:49.625Z,100.00
2023-01-30T12:53:23.690Z,100.00
2023-01-30T12:55:57.239Z,100.00
2023-01-30T12:58:43.672Z,100.00
2023-01-30T13:01:25.111Z,100.00
2023-01-30T13:03:57.711Z,100.00
2023-01-30T13:06:46.862Z,100.00
2023-01-30T13:09:38.972Z,100.00
2023-01-30T13:12:37.569Z,100.00
2023-01-30T13:15:17.780Z,100.00
2023-01-30T13:18:20.922Z,100.00
2023-01-30T13:21:13.982Z,100.00
2023-01-30T13:24:01.900Z,100.00
2023-01-30T13:26:36.310Z,100.00
2023-01-30T13:29:21.208Z,100.00
2023-01-30T13:31:59.589Z,100.00
2023-01-30T13:34:44.428Z,100.00
2023-01-30T13:37:13.403Z,100.00
2023-01-30T13:40:02.384Z,100.00
2023-01-30T13:42:43.904Z,100.00
2023-01-30T13:45:36.715Z,100.00
2023-01-30T13:48:19.442Z,100.00
2023-01-30T13:50:47.150Z,100.00
2023-01-30T13:53:23.588Z,100.00
2023-01-30T13:56:27.115Z,100.00
2023-01-30T13:59:10.086Z,100.00
2023-01-30T14:02:03.844Z,100.00
2023-01-30T14:04:41.324Z,100.00
2023-01-30T14:07:21.881Z,100.00
2023-01-30T14:10:09.958Z,100.00
2023-01-30T14:12:47.893Z,100.00
2023-01-30T14:15:17.385Z,100.00
2023-01-30T14:17:57.715Z,100.00
2023-01-30T14:20:28.475Z,100.00
2023-01-30T14:23:20.712Z,100.00
2023-01-30T14:25:56.479Z,100.00
2023-01-30T14:28:24.230Z,100.00
2023-01-30T14:30:54.932Z,100.00
2023-01-30T14:33:22.520Z,100.00
2023-01-30T14:36:13.469Z,100.00
2023-01-30T14:38:44.464Z,100.00
2023-01-30T14:41:16.747Z,100.00
2023-01-30T14:43:44.480Z,100.00
2023-01-30T14:46:18.693Z,100.00
2023-01-30T14:48:56.902Z,100.00
2023-01-30T14:51:43.512Z,100.00
2023-01-30T14:54:16.979Z,100.00
2023-01-30T14:56:51.093Z,100.00
2023-01-30T14:59:26.881Z,100.00
2023-01-30T15:02:15.106Z,100.00
2023-01-30T15:05:20.385Z,100.00
2023-01-30T15:08:08.954Z,100.00
2023-01-30T15:10:54.589Z,100.00
2023-01-30T15:13:51.893Z,100.00
2023-01-30T15:16:43.529Z,100.00
2023-01-30T15:19:35.045Z,100.00
2023-01-30T15:22:23.028Z,100.00
2023-01-30T15:25:13.143Z,100.00
2023-01-30T15:28:00.136Z,100.00
2023-01-30T15:30:59.448Z,100.00
2023-01-30T15:33:31.286Z,100.00
2023-01-30T15:36:00.548Z,100.00
2023-01-30T15:38:35.072Z,100.00
2023-01-30T15:41:07.270Z,100.00
2023-01-30T15:43:42.992Z,100.00
2023-01-30T15:46:38.978Z,100.00
2023-01-30T15:49:34.639Z,100.00
2023-01-30T15:52:11.222Z,100.00
2023-01-30T15:54:38.897Z,100.00
2023-01-30T15:57:07.222Z,100.00
2023-01-30T15:59:40.004Z,100.00
2023-01-30T16:02:28.147Z,100.00
2023-01-30T16:05:28.885Z,100.00
2023-01-30T16:07:58.982Z,100.00
2023-01-30T16:10:29.562Z,100.00
2023-01-30T16:13:02.439Z,100.00
2023-01-30T16:15:48.516Z,100.00
2023-01-30T16:18:25.614Z,100.00
2023-01-30T16:21:18.648Z,100.00
2023-01-30T16:23:57.498Z,100.00
2023-01-30T16:26:25.334Z,100.00
2023-01-30T16:29:02.472Z,100.00
2023-01-30T16:31:35.353Z,100.00
2023-01-30T16:34:03.897Z,100.00
2023-01-30T16:36:38.191Z,100.00
2023-01-30T16:39:33.253Z,100.00
2023-01-30T16:42:02.396Z,100.00
2023-01-30T16:44:32.565Z,100.00
2023-01-30T16:47:11.186Z,100.00
2023-01-30T16:49:48.283Z,100.00
2023-01-30T16:52:19.114Z,100.00
2023-01-30T16:54:59.926Z,100.00
2023-01-30T16:57:36.666Z,100.00
2023-01-30T17:00:29.792Z,100.00
2023-01-30T17:03:07.500Z,100.00
2023-01-30T17:05:46.239Z,100.00
2023-01-30T17:08:54.262Z,100.00
2023-01-30T17:11:39.241Z,100.00
2023-01-30T17:14:30.642Z,100.00
2023-01-30T17:17:03.141Z,100.00
2023-01-30T17:19:30.917Z,100.00
2023-01-30T17:22:01.596Z,100.00
2023-01-30T17:24:30.014Z,100.00
2023-01-30T17:27:02.634Z,100.00
2023-01-30T17:29:42.343Z,100.00
2023-01-30T17:32:15.129Z,100.00
2023-01-30T17:34:43.056Z,100.00
2023-01-30T17:37:20.346Z,100.00
2023-01-30T17:39:48.760Z,100.00
2023-01-30T17:42:18.748Z,100.00
2023-01-30T17:44:46.584Z,100.00
2023-01-30T17:47:14.608Z,100.00
2023-01-30T17:49:42.454Z,100.00
2023-01-30T17:52:13.012Z,100.00
2023-01-30T17:54:40.850Z,100.00
2023-01-30T17:57:11.842Z,100.00
2023-01-30T17:59:39.537Z,100.00
2023-01-30T18:02:09.719Z,100.00
2023-01-30T18:04:39.940Z,100.00
2023-01-30T18:07:12.462Z,100.00
2023-01-30T18:09:40.261Z,100.00
2023-01-30T18:12:08.295Z,100.00
2023-01-30T18:14:35.946Z,99.88
2023-01-30T18:17:04.177Z,100.00
2023-01-30T18:19:31.965Z,100.00
2023-01-30T18:22:00.199Z,100.00
2023-01-30T18:24:27.935Z,100.00
2023-01-30T18:26:56.069Z,100.00
2023-01-30T18:29:23.984Z,100.00
2023-01-30T18:31:52.024Z,99.97
2023-01-30T18:34:19.814Z,100.00
2023-01-30T18:36:48.459Z,99.73
2023-01-30T18:39:16.204Z,99.86
2023-01-30T18:41:44.160Z,100.00
2023-01-30T18:44:11.863Z,99.97
2023-01-30T18:46:40.024Z,99.55
2023-01-30T18:49:08.391Z,99.70
2023-01-30T18:51:36.405Z,99.84
2023-01-30T18:54:04.141Z,99.80
2023-01-30T18:56:34.122Z,99.67
2023-01-30T18:59:04.349Z,99.92
2023-01-30T19:01:38.738Z,98.99
2023-01-30T19:04:09.191Z,98.94
2023-01-30T19:06:40.782Z,98.40
2023-01-30T19:09:11.850Z,98.85
2023-01-30T19:11:58.454Z,98.89
2023-01-30T19:14:26.393Z,98.98
2023-01-30T19:16:54.627Z,98.55
2023-01-30T19:19:22.476Z,98.82
2023-01-30T19:21:52.329Z,99.17
2023-01-30T19:24:20.042Z,98.33
2023-01-30T19:26:48.933Z,98.59
2023-01-30T19:29:18.256Z,98.24
2023-01-30T19:31:50.201Z,99.05
2023-01-30T19:34:18.156Z,98.85
2023-01-30T19:36:46.111Z,98.71
2023-01-30T19:39:13.814Z,98.43
2023-01-30T19:41:41.731Z,98.81
2023-01-30T19:44:11.731Z,98.91
2023-01-30T19:46:40.801Z,98.63
2023-01-30T19:49:10.396Z,98.84
2023-01-30T19:51:38.348Z,98.59
2023-01-30T19:54:09.608Z,98.72
2023-01-30T19:56:39.333Z,98.18
2023-01-30T19:59:07.896Z,97.76
2023-01-30T20:01:39.779Z,98.05
2023-01-30T20:04:07.856Z,97.64
2023-01-30T20:06:37.564Z,97.84
2023-01-30T20:09:07.964Z,98.06
2023-01-30T20:11:38.350Z,98.24
2023-01-30T20:14:07.207Z,97.89
2023-01-30T20:16:36.300Z,98.22
2023-01-30T20:19:07.751Z,98.24
2023-01-30T20:21:36.349Z,98.41
2023-01-30T20:24:04.572Z,98.36
2023-01-30T20:26:35.452Z,98.65
2023-01-30T20:29:04.357Z,98.57
2023-01-30T20:31:33.646Z,98.74
2023-01-30T20:34:06.056Z,98.67
2023-01-30T20:36:34.091Z,98.41
2023-01-30T20:39:04.098Z,98.62
2023-01-30T20:41:35.061Z,98.47
2023-01-30T20:44:03.627Z,98.80
2023-01-30T20:46:43.620Z,98.65
2023-01-30T20:49:17.820Z,98.81
2023-01-30T20:51:48.079Z,98.73
2023-01-30T20:54:16.556Z,98.57
2023-01-30T20:56:50.834Z,98.66
2023-01-30T20:59:24.306Z,98.44
2023-01-30T21:01:53.305Z,99.03
2023-01-30T21:04:22.535Z,98.57
2023-01-30T21:06:50.859Z,98.83
2023-01-30T21:09:22.330Z,98.54
2023-01-30T21:11:52.638Z,98.52
2023-01-30T21:14:20.817Z,97.93
2023-01-30T21:16:49.243Z,98.03
2023-01-30T21:19:18.188Z,97.93
2023-01-30T21:21:53.464Z,97.28
2023-01-30T21:24:28.796Z,97.21
2023-01-30T21:26:57.827Z,97.50
2023-01-30T21:29:27.851Z,97.27
2023-01-30T21:31:57.465Z,96.64
2023-01-30T21:34:25.746Z,96.57
2023-01-30T21:37:12.403Z,96.74
2023-01-30T21:39:59.097Z,97.31
2023-01-30T21:42:45.644Z,96.85
2023-01-30T21:45:13.638Z,96.99
2023-01-30T21:47:41.746Z,96.84
2023-01-30T21:50:10.093Z,96.92
2023-01-30T21:52:38.165Z,96.20
2023-01-30T21:55:06.144Z,96.39
2023-01-30T21:57:34.336Z,96.02
2023-01-30T22:00:02.208Z,96.31
2023-01-30T22:02:33.185Z,96.60
2023-01-30T22:05:00.967Z,96.48
2023-01-30T22:07:29.006Z,96.44
2023-01-30T22:09:57.184Z,96.32
2023-01-30T22:12:26.541Z,96.23
2023-01-30T22:14:54.891Z,96.54
2023-01-30T22:17:22.971Z,96.93
2023-01-30T22:19:50.668Z,96.78
2023-01-30T22:22:18.650Z,97.34
2023-01-30T22:24:46.287Z,96.78
2023-01-30T22:27:16.338Z,96.42
2023-01-30T22:29:44.090Z,96.47
2023-01-30T22:32:12.130Z,96.49
2023-01-30T22:34:39.903Z,96.85
2023-01-30T22:37:07.827Z,97.05
2023-01-30T22:39:35.910Z,96.75
2023-01-30T22:42:04.042Z,97.14
2023-01-30T22:44:31.651Z,96.59
2023-01-30T22:47:00.118Z,97.47
2023-01-30T22:49:27.741Z,96.98
2023-01-30T22:51:55.632Z,96.81
2023-01-30T22:54:25.036Z,97.04
2023-01-30T22:56:53.337Z,97.18
2023-01-30T22:59:21.827Z,96.37
2023-01-30T23:01:51.018Z,96.01
2023-01-30T23:04:21.644Z,96.68
2023-01-30T23:06:53.888Z,96.38
2023-01-30T23:09:23.449Z,95.97
2023-01-30T23:12:13.422Z,96.00
2023-01-30T23:14:42.905Z,96.33
2023-01-30T23:17:30.155Z,96.29
2023-01-30T23:19:58.522Z,95.55
2023-01-30T23:22:26.476Z,95.64
2023-01-30T23:24:54.055Z,95.13
2023-01-30T23:27:22.221Z,95.52
2023-01-30T23:29:49.982Z,95.34
2023-01-30T23:32:21.008Z,95.69
2023-01-30T23:34:48.989Z,95.34
2023-01-30T23:37:17.589Z,95.32
2023-01-30T23:39:45.935Z,95.13
2023-01-30T23:42:13.854Z,95.51
2023-01-30T23:44:41.527Z,95.56
2023-01-30T23:47:09.417Z,95.42
2023-01-30T23:49:37.679Z,95.30
2023-01-30T23:52:06.084Z,95.33
2023-01-30T23:54:33.776Z,95.12
2023-01-30T23:57:01.714Z,95.07
2023-01-30T23:59:29.470Z,95.36
